createdAt,value
2018-11-10T00:00:49.002Z,100957.04
2018-11-10T00:05:41.663Z,100950.41
2018-11-10T00:10:34.365Z,100948.64
2018-11-10T00:15:27.321Z,100955.36
2018-11-10T00:20:20.062Z,100948.64
2018-11-10T00:25:13.727Z,100946.69
2018-11-10T00:30:08.923Z,100949.28
2018-11-10T00:35:01.829Z,100940.02
2018-11-10T00:39:54.554Z,100950.16
2018-11-10T00:44:47.210Z,100943.88
2018-11-10T00:49:40.021Z,100938.40
2018-11-10T00:54:32.787Z,100925.94
2018-11-10T00:59:25.616Z,100924.29
2018-11-10T01:04:18.314Z,100925.23
2018-11-10T01:09:11.059Z,100924.63
2018-11-10T01:14:03.928Z,100931.03
2018-11-10T01:19:06.033Z,100931.03
2018-11-10T01:29:04.456Z,100909.90
2018-11-10T01:33:57.164Z,100908.98
2018-11-10T01:38:49.907Z,100908.00
2018-11-10T01:43:42.607Z,100899.84
2018-11-10T01:48:35.312Z,100898.86
2018-11-10T01:53:28.001Z,100893.08
2018-11-10T01:58:20.698Z,100894.42
2018-11-10T02:03:13.418Z,100892.77
2018-11-10T02:08:06.250Z,100890.19
2018-11-10T02:12:58.935Z,100877.48
2018-11-10T02:17:51.634Z,100871.80
2018-11-10T02:22:44.353Z,100871.50
2018-11-10T02:27:37.080Z,100860.36
2018-11-10T02:32:29.859Z,100863.56
2018-11-10T02:37:22.534Z,100860.59
2018-11-10T02:42:15.197Z,100868.05
2018-11-10T02:47:07.945Z,100862.05
2018-11-10T02:52:00.618Z,100859.80
2018-11-10T02:56:53.351Z,100867.02
2018-11-10T03:01:46.077Z,100856.43
2018-11-10T03:06:38.818Z,100860.36
2018-11-10T03:11:31.510Z,100855.41
2018-11-10T03:16:24.274Z,100846.53
2018-11-10T03:21:16.923Z,100842.72
2018-11-10T03:26:09.610Z,100842.14
2018-11-10T03:31:02.267Z,100843.07
2018-11-10T03:35:54.985Z,100838.64
2018-11-10T03:40:47.682Z,100835.03
2018-11-10T03:45:40.379Z,100836.10
2018-11-10T03:50:33.084Z,100837.14
2018-11-10T03:55:25.751Z,100827.64
2018-11-10T04:00:18.569Z,100833.73
2018-11-10T04:05:12.190Z,100834.61
2018-11-10T04:10:05.258Z,100830.79
2018-11-10T04:14:57.964Z,100815.42
2018-11-10T04:19:50.754Z,100802.94
2018-11-10T04:24:43.439Z,100807.11
2018-11-10T04:29:36.177Z,100802.36
2018-11-10T04:34:28.819Z,100802.41
2018-11-10T04:39:21.498Z,100803.34
2018-11-10T04:44:14.176Z,100793.75
2018-11-10T04:49:06.894Z,100787.86
2018-11-10T04:53:59.542Z,100781.16
2018-11-10T04:58:52.193Z,100784.45
2018-11-10T05:03:44.904Z,100785.70
2018-11-10T05:08:37.613Z,100777.97
2018-11-10T05:13:30.463Z,100770.67
2018-11-10T05:18:23.209Z,100769.55
2018-11-10T05:23:15.962Z,100773.88
2018-11-10T05:28:08.658Z,100770.07
2018-11-10T05:33:01.458Z,100768.87
2018-11-10T05:37:54.121Z,100769.91
2018-11-10T05:42:46.784Z,100771.45
2018-11-10T05:47:39.466Z,100783.00
2018-11-10T05:52:32.159Z,100790.32
2018-11-10T05:57:24.987Z,100792.48
2018-11-10T06:02:17.637Z,100802.48
2018-11-10T06:07:10.326Z,100795.03
2018-11-10T06:12:03.072Z,100788.63
2018-11-10T06:16:55.754Z,100797.33
2018-11-10T06:21:48.485Z,100796.00
2018-11-10T06:26:41.232Z,100788.63
2018-11-10T06:31:33.834Z,100773.67
2018-11-10T06:36:26.667Z,100768.11
2018-11-10T06:41:19.578Z,100773.47
2018-11-10T06:46:12.355Z,100775.12
2018-11-10T06:51:05.092Z,100765.52
2018-11-10T06:55:57.814Z,100764.19
2018-11-10T07:00:50.578Z,100766.34
2018-11-10T07:05:43.229Z,100761.05
2018-11-10T07:10:35.928Z,100761.14
2018-11-10T07:15:28.712Z,100774.45
2018-11-10T07:20:21.697Z,100763.51
2018-11-10T07:25:16.102Z,100776.61
2018-11-10T07:30:11.444Z,100785.34
2018-11-10T07:35:05.012Z,100785.66
2018-11-10T07:39:57.868Z,100782.76
2018-11-10T07:44:50.911Z,100788.53
2018-11-10T07:49:43.877Z,100781.09
2018-11-10T07:54:36.768Z,100777.14
2018-11-10T07:59:29.683Z,100779.19
2018-11-10T08:04:22.675Z,100778.25
2018-11-10T08:09:15.660Z,100780.89
2018-11-10T08:14:08.535Z,100780.01
2018-11-10T08:19:01.579Z,100765.23
2018-11-10T08:23:54.524Z,100772.03
2018-11-10T08:28:47.448Z,100759.19
2018-11-10T08:33:40.408Z,100763.61
2018-11-10T08:38:33.388Z,100765.14
2018-11-10T08:43:26.312Z,100761.48
2018-11-10T08:48:19.108Z,100764.04
2018-11-10T08:53:11.963Z,100766.81
2018-11-10T08:58:05.456Z,100756.44
2018-11-10T09:02:58.478Z,100752.72
2018-11-10T09:07:51.575Z,100746.92
2018-11-10T09:12:44.710Z,100754.39
2018-11-10T09:17:37.780Z,100761.38
2018-11-10T09:22:30.580Z,100757.41
2018-11-10T09:27:25.290Z,100754.89
2018-11-10T09:32:19.637Z,100756.86
2018-11-10T09:37:14.918Z,100761.50
2018-11-10T09:42:13.576Z,100775.99
2018-11-10T09:47:06.693Z,100765.55
2018-11-10T09:51:59.883Z,100764.06
2018-11-10T09:56:54.869Z,100757.09
2018-11-10T10:01:48.047Z,100756.44
2018-11-10T10:06:40.636Z,100744.04
2018-11-10T10:11:33.495Z,100742.69
2018-11-10T10:16:26.512Z,100744.83
2018-11-10T10:21:19.517Z,100724.34
2018-11-10T10:26:12.410Z,100722.91
2018-11-10T10:31:05.439Z,100709.63
2018-11-10T10:35:58.454Z,100689.63
2018-11-10T10:40:51.518Z,100698.75
2018-11-10T10:45:44.371Z,100705.14
2018-11-10T10:50:37.246Z,100706.80
2018-11-10T10:55:30.101Z,100721.20
2018-11-10T11:00:28.861Z,100728.41
2018-11-10T11:05:28.048Z,100708.20
2018-11-10T11:10:22.296Z,100719.95
2018-11-10T11:15:15.061Z,100717.02
2018-11-10T11:20:07.864Z,100704.36
2018-11-10T11:25:00.755Z,100679.69
2018-11-10T11:29:53.588Z,100678.97
2018-11-10T11:34:46.369Z,100664.63
2018-11-10T11:39:39.275Z,100665.77
2018-11-10T11:44:32.110Z,100659.42
2018-11-10T11:49:27.037Z,100673.34
2018-11-10T11:54:19.826Z,100665.55
2018-11-10T11:59:12.844Z,100677.52
2018-11-10T12:04:10.874Z,100659.19
2018-11-10T12:09:06.558Z,100655.91
2018-11-10T12:13:59.338Z,100652.03
2018-11-10T12:18:52.190Z,100649.66
2018-11-10T12:23:44.982Z,100636.14
2018-11-10T12:28:37.710Z,100648.69
2018-11-10T12:33:30.466Z,100673.35
2018-11-10T12:38:23.257Z,100666.06
2018-11-10T12:43:15.961Z,100658.83
2018-11-10T12:48:08.741Z,100663.56
2018-11-10T12:53:02.062Z,100669.55
2018-11-10T12:57:56.879Z,100663.45
2018-11-10T13:02:49.901Z,100652.40
2018-11-10T13:07:49.995Z,100658.14
2018-11-10T13:12:43.635Z,100651.63
2018-11-10T13:17:37.003Z,100639.45
2018-11-10T13:22:30.213Z,100631.38
2018-11-10T13:27:23.150Z,100636.25
2018-11-10T13:32:16.096Z,100613.06
2018-11-10T13:37:09.015Z,100614.21
2018-11-10T13:42:03.155Z,100602.13
2018-11-10T13:46:55.968Z,100601.30
2018-11-10T13:51:49.559Z,100607.78
2018-11-10T13:56:42.504Z,100606.09
2018-11-10T14:01:35.326Z,100605.03
2018-11-10T14:06:28.123Z,100603.35
2018-11-10T14:11:20.978Z,100618.72
2018-11-10T14:16:27.957Z,100618.43
2018-11-10T14:21:21.579Z,100606.22
2018-11-10T14:26:15.191Z,100598.35
2018-11-10T14:31:08.260Z,100592.45
2018-11-10T14:36:01.310Z,100586.52
2018-11-10T14:40:54.230Z,100587.09
2018-11-10T14:45:47.131Z,100597.33
2018-11-10T14:50:39.911Z,100598.59
2018-11-10T14:55:32.818Z,100604.78
2018-11-10T15:00:27.831Z,100630.18
2018-11-10T15:05:20.694Z,100636.37
2018-11-10T15:10:14.830Z,100638.78
2018-11-10T15:15:09.672Z,100648.53
2018-11-10T15:20:02.570Z,100651.23
2018-11-10T15:24:55.351Z,100658.24
2018-11-10T15:29:48.445Z,100665.98
2018-11-10T15:34:41.262Z,100655.35
2018-11-10T15:39:34.246Z,100662.58
2018-11-10T15:44:27.796Z,100667.08
2018-11-10T15:49:20.587Z,100665.95
2018-11-10T15:54:13.620Z,100675.61
2018-11-10T15:59:06.427Z,100667.17
2018-11-10T16:03:59.771Z,100654.13
2018-11-10T16:09:10.920Z,100660.30
2018-11-10T16:14:19.448Z,100655.06
2018-11-10T16:19:32.515Z,100663.68
2018-11-10T16:24:27.288Z,100651.47
2018-11-10T16:29:20.883Z,100659.81
2018-11-10T16:34:16.035Z,100665.17
2018-11-10T17:23:25.472Z,100661.14
2018-11-10T17:28:32.923Z,100657.03
2018-11-10T17:33:34.572Z,100653.44
2018-11-10T17:38:27.835Z,100654.39
2018-11-10T17:43:21.070Z,100652.20
2018-11-10T17:48:14.551Z,100650.27
2018-11-10T17:53:07.880Z,100654.50
2018-11-10T17:58:01.054Z,100654.42
2018-11-10T18:02:53.889Z,100645.69
2018-11-10T18:07:46.708Z,100658.59
2018-11-10T18:12:39.604Z,100655.29
2018-11-10T18:17:32.311Z,100650.55
2018-11-10T18:22:24.981Z,100644.19
2018-11-10T18:27:17.957Z,100656.51
2018-11-10T18:32:10.850Z,100656.19
2018-11-10T18:37:03.501Z,100652.61
2018-11-10T18:41:56.096Z,100641.20
2018-11-10T18:46:48.681Z,100643.20
2018-11-10T18:51:41.317Z,100646.66
2018-11-10T18:56:34.544Z,100645.81
2018-11-10T19:01:27.401Z,100655.19
2018-11-10T19:06:20.070Z,100655.06
2018-11-10T19:11:12.706Z,100660.95
2018-11-10T19:16:05.497Z,100661.33
2018-11-10T19:20:58.195Z,100660.18
2018-11-10T19:25:50.821Z,100667.37
2018-11-10T19:30:43.471Z,100665.97
2018-11-10T19:35:36.027Z,100659.17
2018-11-10T19:40:28.640Z,100663.70
2018-11-10T19:45:21.213Z,100666.34
2018-11-10T19:50:14.279Z,100669.20
2018-11-10T19:55:11.230Z,100671.53
2018-11-10T20:00:09.066Z,100666.93
2018-11-10T20:05:01.700Z,100654.91
2018-11-10T20:09:54.295Z,100661.02
2018-11-10T20:14:47.004Z,100667.91
2018-11-10T20:19:39.712Z,100659.95
2018-11-10T20:24:32.414Z,100652.56
2018-11-10T20:29:25.072Z,100664.58
2018-11-10T20:34:17.639Z,100663.92
2018-11-10T20:39:10.636Z,100665.09
2018-11-10T20:44:03.306Z,100664.66
2018-11-10T20:48:55.999Z,100652.72
2018-11-10T20:53:48.790Z,100658.56
2018-11-10T20:58:41.436Z,100653.81
2018-11-10T21:03:34.078Z,100668.48
2018-11-10T21:08:26.772Z,100663.39
2018-11-10T21:13:19.482Z,100660.86
2018-11-10T21:18:12.106Z,100655.25
2018-11-10T21:23:04.942Z,100654.09
2018-11-10T21:27:57.593Z,100667.47
2018-11-10T21:32:50.268Z,100672.85
2018-11-10T21:37:42.916Z,100675.47
2018-11-10T21:42:35.549Z,100673.45
2018-11-10T21:47:28.233Z,100670.34
2018-11-10T21:52:20.854Z,100668.06
2018-11-10T21:57:13.494Z,100670.08
2018-11-10T22:02:06.237Z,100672.77
2018-11-10T22:06:59.173Z,100669.85
2018-11-10T22:11:51.846Z,100683.12
2018-11-10T22:16:44.742Z,100683.38
2018-11-10T22:21:37.316Z,100685.39
2018-11-10T22:26:29.963Z,100688.83
2018-11-10T22:31:22.495Z,100682.62
2018-11-10T22:36:15.077Z,100693.17
2018-11-10T22:41:07.744Z,100691.45
2018-11-10T22:46:00.319Z,100684.72
2018-11-10T22:50:53.038Z,100681.38
2018-11-10T22:55:45.820Z,100684.00
2018-11-10T23:00:43.083Z,100677.72
2018-11-10T23:05:35.661Z,100680.88
2018-11-10T23:10:28.530Z,100683.57
2018-11-10T23:15:21.196Z,100682.75
2018-11-10T23:20:15.150Z,100688.80
2018-11-10T23:25:09.962Z,100684.98
2018-11-10T23:30:02.729Z,100677.58
2018-11-10T23:34:55.318Z,100675.11
2018-11-10T23:39:48.000Z,100676.90
2018-11-10T23:44:40.654Z,100667.41
2018-11-10T23:49:33.643Z,100655.31
2018-11-10T23:54:26.391Z,100652.32
2018-11-10T23:59:19.147Z,100654.73
